createdAt,value
2018-05-28T00:02:14.583Z,102079.70
2018-05-28T00:04:42.231Z,102078.80
2018-05-28T00:07:09.851Z,102086.28
2018-05-28T00:09:37.498Z,102089.78
2018-05-28T00:12:05.184Z,102083.63
2018-05-28T00:14:32.847Z,102082.75
2018-05-28T00:17:00.472Z,102081.88
2018-05-28T00:19:28.125Z,102083.64
2018-05-28T00:21:55.742Z,102077.92
2018-05-28T00:24:23.382Z,102072.22
2018-05-28T00:26:51.003Z,102080.13
2018-05-28T00:29:18.647Z,102068.73
2018-05-28T00:31:46.267Z,102066.09
2018-05-28T00:34:13.936Z,102070.02
2018-05-28T00:36:41.587Z,102063.90
2018-05-28T00:39:09.258Z,102074.41
2018-05-28T00:41:36.912Z,102074.41
2018-05-28T00:44:04.592Z,102076.18
2018-05-28T00:46:32.212Z,102073.98
2018-05-28T00:48:59.859Z,102082.75
2018-05-28T00:51:27.479Z,102080.13
2018-05-28T00:53:55.124Z,102071.80
2018-05-28T00:56:22.795Z,102073.98
2018-05-28T00:58:50.442Z,102069.60
2018-05-28T01:01:18.079Z,102077.94
2018-05-28T01:03:45.739Z,102076.61
2018-05-28T01:06:13.354Z,102079.69
2018-05-28T01:08:40.975Z,102075.28
2018-05-28T01:11:08.611Z,102073.08
2018-05-28T01:13:36.235Z,102079.22
2018-05-28T01:16:03.879Z,102077.05
2018-05-28T01:18:31.551Z,102074.84
2018-05-28T01:20:59.216Z,102075.29
2018-05-28T01:23:26.865Z,102077.93
2018-05-28T01:25:54.506Z,102073.53
2018-05-28T01:28:22.135Z,102077.92
2018-05-28T01:30:49.781Z,102085.79
2018-05-28T01:33:17.403Z,102073.97
2018-05-28T01:35:45.087Z,102070.89
2018-05-28T01:38:12.747Z,102066.50
2018-05-28T01:40:40.397Z,102062.98
2018-05-28T01:43:08.015Z,102065.61
2018-05-28T01:45:35.660Z,102060.36
2018-05-28T01:48:03.297Z,102059.42
2018-05-28T01:50:30.965Z,102058.09
2018-05-28T01:52:58.628Z,102054.14
2018-05-28T01:55:26.273Z,102054.13
2018-05-28T01:57:53.887Z,102065.06
2018-05-28T02:00:21.532Z,102058.93
2018-05-28T02:02:49.151Z,102064.17
2018-05-28T02:05:16.827Z,102056.72
2018-05-28T02:07:44.436Z,102055.38
2018-05-28T02:10:12.075Z,102061.95
2018-05-28T02:12:39.691Z,102061.05
2018-05-28T02:15:07.374Z,102062.35
2018-05-28T02:17:34.993Z,102064.08
2018-05-28T02:20:02.648Z,102069.76
2018-05-28T02:22:30.267Z,102073.25
2018-05-28T02:24:57.882Z,102073.24
2018-05-28T02:27:25.522Z,102079.36
2018-05-28T02:29:53.143Z,102082.84
2018-05-28T02:32:20.778Z,102077.99
2018-05-28T02:34:48.446Z,102086.30
2018-05-28T02:37:16.138Z,102087.62
2018-05-28T02:39:43.755Z,102082.78
2018-05-28T02:42:11.390Z,102083.66
2018-05-28T02:44:39.004Z,102086.27
2018-05-28T02:47:06.693Z,102084.55
2018-05-28T02:49:34.309Z,102086.28
2018-05-28T02:52:01.951Z,102081.89
2018-05-28T02:54:29.563Z,102082.75
2018-05-28T02:56:57.208Z,102075.73
2018-05-28T02:59:24.826Z,102072.67
2018-05-28T03:01:52.474Z,102070.92
2018-05-28T03:04:20.110Z,102071.34
2018-05-28T03:06:47.755Z,102074.38
2018-05-28T03:09:15.367Z,102073.05
2018-05-28T03:11:43.095Z,102069.53
2018-05-28T03:14:11.267Z,102065.13
2018-05-28T03:16:38.929Z,102064.70
2018-05-28T03:19:06.604Z,102065.56
2018-05-28T03:21:34.237Z,102072.55
2018-05-28T03:24:01.922Z,102068.14
2018-05-28T03:26:29.558Z,102075.13
2018-05-28T03:28:57.241Z,102073.34
2018-05-28T03:31:24.912Z,102077.72
2018-05-28T03:33:52.527Z,102072.91
2018-05-28T03:36:20.191Z,102078.61
2018-05-28T03:38:47.822Z,102070.75
2018-05-28T03:41:15.435Z,102071.23
2018-05-28T03:43:43.114Z,102070.80
2018-05-28T03:46:10.722Z,102066.89
2018-05-28T03:48:38.357Z,102067.81
2018-05-28T03:51:06.002Z,102061.27
2018-05-28T03:53:33.667Z,102060.41
2018-05-28T03:56:01.322Z,102055.19
2018-05-28T03:58:28.960Z,102050.86
2018-05-28T04:01:09.863Z,102057.95
2018-05-28T04:03:49.200Z,102059.76
2018-05-28T04:06:16.806Z,102061.14
2018-05-28T04:08:44.447Z,102056.41
2018-05-28T04:11:12.063Z,102053.35
2018-05-28T04:13:39.754Z,102056.87
2018-05-28T04:16:07.366Z,102059.08
2018-05-28T04:18:35.002Z,102060.35
2018-05-28T04:21:02.614Z,102064.30
2018-05-28T04:23:30.251Z,102065.14
2018-05-28T04:25:57.862Z,102066.38
2018-05-28T04:28:25.521Z,102070.69
2018-05-28T04:30:53.170Z,102066.69
2018-05-28T04:33:20.801Z,102073.63
2018-05-28T04:35:48.419Z,102080.59
2018-05-28T04:38:16.268Z,102077.11
2018-05-28T04:40:43.893Z,102079.78
2018-05-28T04:43:11.546Z,102084.64
2018-05-28T04:45:40.210Z,102084.21
2018-05-28T04:48:07.875Z,102081.58
2018-05-28T04:50:35.483Z,102079.41
2018-05-28T04:53:03.159Z,102083.37
2018-05-28T04:55:30.803Z,102082.05
2018-05-28T04:57:58.418Z,102088.69
2018-05-28T05:00:26.055Z,102089.59
2018-05-28T05:02:53.694Z,102087.83
2018-05-28T05:05:21.336Z,102086.95
2018-05-28T05:07:48.951Z,102088.27
2018-05-28T05:10:16.719Z,102096.17
2018-05-28T05:12:44.342Z,102088.66
2018-05-28T05:15:11.984Z,102093.92
2018-05-28T05:17:39.594Z,102091.27
2018-05-28T05:20:07.250Z,102085.98
2018-05-28T05:22:34.903Z,102091.23
2018-05-28T05:25:02.594Z,102088.56
2018-05-28T05:27:30.951Z,102088.97
2018-05-28T05:29:58.583Z,102087.22
2018-05-28T05:32:26.203Z,102088.50
2018-05-28T05:34:53.838Z,102084.95
2018-05-28T05:37:21.451Z,102083.16
2018-05-28T05:39:49.095Z,102078.30
2018-05-28T05:42:16.787Z,102082.22
2018-05-28T05:44:44.481Z,102082.60
2018-05-28T05:47:12.153Z,102081.23
2018-05-28T05:49:39.794Z,102085.59
2018-05-28T05:52:07.411Z,102084.19
2018-05-28T05:54:35.138Z,102085.00
2018-05-28T05:57:02.756Z,102089.72
2018-05-28T05:59:30.371Z,102092.25
2018-05-28T06:01:58.039Z,102086.84
2018-05-28T06:04:25.664Z,102095.53
2018-05-28T06:06:53.310Z,102090.55
2018-05-28T06:09:20.925Z,102101.48
2018-05-28T06:11:48.563Z,102095.22
2018-05-28T06:14:16.174Z,102102.13
2018-05-28T06:16:43.811Z,102102.01
2018-05-28T06:19:11.446Z,102103.22
2018-05-28T06:21:39.078Z,102105.70
2018-05-28T06:24:06.690Z,102102.44
2018-05-28T06:26:34.332Z,102106.62
2018-05-28T06:29:01.951Z,102102.03
2018-05-28T06:31:29.592Z,102107.99
2018-05-28T06:33:57.215Z,102101.13
2018-05-28T06:36:24.886Z,102103.55
2018-05-28T06:38:52.548Z,102100.69
2018-05-28T06:41:20.207Z,102093.84
2018-05-28T06:43:47.830Z,102102.93
2018-05-28T06:46:15.468Z,102097.86
2018-05-28T06:48:43.082Z,102104.27
2018-05-28T06:51:10.759Z,102102.77
2018-05-28T06:53:38.369Z,102100.80
2018-05-28T06:56:06.011Z,102101.02
2018-05-28T06:58:33.645Z,102100.44
2018-05-28T07:01:01.307Z,102094.94
2018-05-28T07:03:28.919Z,102090.73
2018-05-28T07:05:56.575Z,102090.09
2018-05-28T07:08:24.182Z,102098.25
2018-05-28T07:10:51.803Z,102090.52
2018-05-28T07:13:19.442Z,102088.95
2018-05-28T07:15:47.066Z,102086.08
2018-05-28T07:18:14.738Z,102083.73
2018-05-28T07:20:42.403Z,102082.64
2018-05-28T07:23:10.048Z,102083.34
2018-05-28T07:25:37.722Z,102081.81
2018-05-28T07:28:05.386Z,102084.67
2018-05-28T07:30:32.997Z,102088.08
2018-05-28T07:33:00.710Z,102092.81
2018-05-28T07:35:28.377Z,102092.29
2018-05-28T07:37:56.027Z,102090.78
2018-05-28T07:40:23.705Z,102095.00
2018-05-28T07:42:51.359Z,102091.30
2018-05-28T07:45:19.003Z,102093.27
2018-05-28T07:47:46.687Z,102095.22
2018-05-28T07:50:14.303Z,102087.48
2018-05-28T07:52:41.946Z,102088.22
2018-05-28T07:55:09.566Z,102086.27
2018-05-28T07:57:37.210Z,102087.41
2018-05-28T08:00:04.896Z,102082.31
2018-05-28T08:02:32.559Z,102086.54
2018-05-28T08:05:00.179Z,102084.55
2018-05-28T08:07:27.819Z,102086.53
2018-05-28T08:09:55.441Z,102089.86
2018-05-28T08:12:23.102Z,102100.09
2018-05-28T08:14:50.710Z,102096.31
2018-05-28T08:17:18.346Z,102092.98
2018-05-28T08:19:45.986Z,102089.62
2018-05-28T08:22:13.611Z,102086.28
2018-05-28T08:24:41.314Z,102082.09
2018-05-28T08:27:08.926Z,102081.88
2018-05-28T08:29:36.557Z,102080.24
2018-05-28T08:32:04.198Z,102079.08
2018-05-28T08:34:31.853Z,102073.83
2018-05-28T08:36:59.467Z,102079.72
2018-05-28T08:39:27.187Z,102078.55
2018-05-28T08:41:54.886Z,102074.66
2018-05-28T08:44:22.617Z,102076.14
2018-05-28T08:46:50.274Z,102071.89
2018-05-28T08:49:17.935Z,102074.28
2018-05-28T08:51:45.541Z,102070.06
2018-05-28T08:54:13.178Z,102073.81
2018-05-28T08:56:40.790Z,102063.75
2018-05-28T08:59:08.478Z,102066.60
2018-05-28T09:01:36.094Z,102065.09
2018-05-28T09:04:03.811Z,102066.65
2018-05-28T09:06:31.465Z,102063.28
2018-05-28T09:08:59.098Z,102065.73
2018-05-28T09:11:26.998Z,102068.66
2018-05-28T09:13:54.562Z,102064.56
2018-05-28T09:16:22.179Z,102070.59
2018-05-28T09:18:49.890Z,102061.97
2018-05-28T09:21:17.511Z,102056.87
2018-05-28T09:23:45.211Z,102056.14
2018-05-28T09:26:12.832Z,102064.78
2018-05-28T09:28:40.538Z,102066.23
2018-05-28T09:31:08.151Z,102062.81
2018-05-28T09:33:35.803Z,102063.91
2018-05-28T09:36:04.463Z,102057.52
2018-05-28T09:38:32.074Z,102063.96
2018-05-28T09:40:59.719Z,102060.68
2018-05-28T09:43:27.339Z,102058.77
2018-05-28T09:45:54.974Z,102058.58
2018-05-28T09:48:22.659Z,102053.42
2018-05-28T09:50:50.295Z,102058.44
2018-05-28T09:53:17.910Z,102064.78
2018-05-28T09:55:45.547Z,102061.39
2018-05-28T09:58:13.159Z,102057.47
2018-05-28T10:00:40.790Z,102061.63
2018-05-28T10:03:08.402Z,102064.31
2018-05-28T10:05:36.050Z,102059.50
2018-05-28T10:08:03.663Z,102064.98
2018-05-28T10:10:31.295Z,102061.16
2018-05-28T10:12:58.985Z,102059.18
2018-05-28T10:15:26.635Z,102061.22
2018-05-28T10:17:54.294Z,102065.95
2018-05-28T10:20:21.930Z,102067.23
2018-05-28T10:22:49.649Z,102060.80
2018-05-28T10:25:17.389Z,102063.17
2018-05-28T10:27:45.009Z,102067.72
2018-05-28T10:30:12.647Z,102061.08
2018-05-28T10:32:40.365Z,102075.33
2018-05-28T10:35:08.454Z,102067.03
2018-05-28T10:37:36.066Z,102065.91
2018-05-28T10:40:03.771Z,102062.32
2018-05-28T10:42:31.411Z,102059.58
2018-05-28T10:44:59.085Z,102069.28
2018-05-28T10:47:26.727Z,102057.55
2018-05-28T10:49:54.357Z,102065.70
2018-05-28T10:52:22.102Z,102069.49
2018-05-28T10:54:49.741Z,102064.02
2018-05-28T10:57:17.407Z,102064.80
2018-05-28T10:59:45.017Z,102064.27
2018-05-28T11:02:12.653Z,102063.63
2018-05-28T11:04:40.267Z,102069.12
2018-05-28T11:07:07.906Z,102057.33
2018-05-28T11:09:35.522Z,102060.70
2018-05-28T11:12:03.280Z,102047.50
2018-05-28T11:14:30.932Z,102054.90
2018-05-28T11:16:58.605Z,102047.48
2018-05-28T11:19:26.267Z,102052.66
2018-05-28T11:21:53.909Z,102050.68
2018-05-28T11:24:21.517Z,102045.20
2018-05-28T11:26:49.158Z,102040.37
2018-05-28T11:29:16.770Z,102045.73
2018-05-28T11:31:44.492Z,102037.63
2018-05-28T11:34:12.106Z,102038.00
2018-05-28T11:36:39.798Z,102042.35
2018-05-28T11:39:07.422Z,102041.38
2018-05-28T11:41:35.091Z,102039.05
2018-05-28T11:44:02.720Z,102034.01
2018-05-28T11:46:30.403Z,102028.51
2018-05-28T11:48:58.003Z,102026.09
2018-05-28T11:51:25.755Z,102028.58
2018-05-28T11:53:53.382Z,102031.89
2018-05-28T11:56:21.094Z,102028.53
2018-05-28T11:58:48.758Z,102029.10
2018-05-28T12:01:16.416Z,102022.89
2018-05-28T12:03:44.087Z,102020.27
2018-05-28T12:06:11.706Z,102017.72
2018-05-28T12:08:39.342Z,102012.61
2018-05-28T12:11:07.070Z,102015.53
2018-05-28T12:13:34.730Z,102019.43
2018-05-28T12:16:02.424Z,102005.84
2018-05-28T12:18:30.011Z,102017.64
2018-05-28T12:20:57.723Z,102011.11
2018-05-28T12:23:25.353Z,102013.97
2018-05-28T12:25:52.971Z,102010.23
2018-05-28T12:28:20.607Z,102012.86
2018-05-28T12:30:48.265Z,101997.11
2018-05-28T12:33:15.927Z,102004.68
2018-05-28T12:35:43.543Z,102003.21
2018-05-28T12:38:11.178Z,102005.36
2018-05-28T12:40:38.813Z,102002.17
2018-05-28T12:43:06.442Z,101986.36
2018-05-28T12:45:34.138Z,101989.53
2018-05-28T12:48:01.766Z,101981.49
2018-05-28T12:50:29.398Z,101983.27
2018-05-28T12:52:57.126Z,101987.27
2018-05-28T12:55:24.735Z,101978.25
2018-05-28T12:57:52.374Z,101978.06
2018-05-28T13:00:19.987Z,101978.34
2018-05-28T13:02:47.614Z,101981.76
2018-05-28T13:05:15.227Z,101977.68
2018-05-28T13:07:42.993Z,101983.48
2018-05-28T13:10:10.598Z,101969.80
2018-05-28T13:12:38.203Z,101966.58
2018-05-28T13:15:05.886Z,101966.31
2018-05-28T13:17:33.488Z,101959.28
2018-05-28T13:20:01.115Z,101965.69
2018-05-28T13:22:28.723Z,101958.72
2018-05-28T13:24:56.355Z,101954.36
2018-05-28T13:27:23.957Z,101946.12
2018-05-28T13:29:51.594Z,101951.36
2018-05-28T13:32:19.210Z,101955.45
2018-05-28T13:34:46.847Z,101958.77
2018-05-28T13:37:14.469Z,101946.25
2018-05-28T13:39:42.117Z,101950.66
2018-05-28T13:42:09.760Z,101958.13
2018-05-28T13:44:37.418Z,101948.61
2018-05-28T13:47:05.094Z,101938.41
2018-05-28T13:49:32.736Z,101943.51
2018-05-28T13:52:00.345Z,101940.63
2018-05-28T13:54:27.982Z,101937.22
2018-05-28T13:56:55.630Z,101933.34
2018-05-28T13:59:23.263Z,101931.06
2018-05-28T14:01:50.898Z,101928.41
2018-05-28T14:04:18.526Z,101923.16
2018-05-28T14:06:46.133Z,101920.69
2018-05-28T14:09:13.839Z,101921.25
2018-05-28T14:11:41.597Z,101922.70
2018-05-28T14:14:09.268Z,101928.66
2018-05-28T14:16:36.890Z,101924.39
2018-05-28T14:19:04.524Z,101925.84
2018-05-28T14:21:32.146Z,101932.63
2018-05-28T14:23:59.810Z,101923.58
2018-05-28T14:26:27.416Z,101921.63
2018-05-28T14:28:55.138Z,101920.09
2018-05-28T14:31:23.066Z,101916.28
2018-05-28T14:33:50.426Z,101916.47
2018-05-28T14:36:18.122Z,101920.32
2018-05-28T14:38:45.883Z,101912.34
2018-05-28T14:41:13.552Z,101910.94
2018-05-28T14:43:41.199Z,101907.27
2018-05-28T14:46:08.841Z,101904.44
2018-05-28T14:48:36.451Z,101911.30
2018-05-28T14:51:04.163Z,101905.78
2018-05-28T14:53:31.722Z,101905.09
2018-05-28T14:55:59.423Z,101901.00
2018-05-28T14:58:27.042Z,101903.63
2018-05-28T15:00:54.679Z,101903.20
2018-05-28T15:03:22.286Z,101893.85
2018-05-28T15:05:49.924Z,101891.65
2018-05-28T15:08:17.592Z,101886.66
2018-05-28T15:10:45.235Z,101886.28
2018-05-28T15:13:12.959Z,101885.55
2018-05-28T15:15:40.618Z,101881.23
2018-05-28T15:18:08.222Z,101877.77
2018-05-28T15:20:35.908Z,101881.06
2018-05-28T15:23:03.495Z,101878.75
2018-05-28T15:25:31.159Z,101878.11
2018-05-28T15:27:58.926Z,101878.24
2018-05-28T15:30:26.595Z,101875.26
2018-05-28T15:32:54.206Z,101876.36
2018-05-28T15:35:21.839Z,101869.78
2018-05-28T15:37:49.475Z,101867.23
2018-05-28T15:40:17.243Z,101865.94
2018-05-28T15:42:45.780Z,101861.86
2018-05-28T15:45:13.387Z,101863.13
2018-05-28T15:47:41.026Z,101865.62
2018-05-28T15:50:08.635Z,101859.98
2018-05-28T15:52:36.366Z,101853.56
2018-05-28T15:55:04.035Z,101859.02
2018-05-28T15:57:31.694Z,101858.09
2018-05-28T15:59:59.302Z,101853.13
2018-05-28T16:02:26.926Z,101847.64
2018-05-28T16:04:54.539Z,101853.50
2018-05-28T16:07:22.165Z,101863.45
2018-05-28T16:09:49.778Z,101859.06
2018-05-28T16:12:17.470Z,101858.69
2018-05-28T16:14:45.071Z,101852.86
2018-05-28T16:17:12.790Z,101847.47
2018-05-28T16:19:40.450Z,101855.39
2018-05-28T16:22:08.111Z,101853.16
2018-05-28T16:24:35.715Z,101847.56
2018-05-28T16:27:03.439Z,101853.47
2018-05-28T16:29:31.299Z,101858.75
2018-05-28T16:31:58.945Z,101859.70
2018-05-28T16:34:26.626Z,101856.09
2018-05-28T16:36:54.286Z,101867.10
2018-05-28T16:39:21.960Z,101858.52
2018-05-28T16:41:49.590Z,101863.71
2018-05-28T16:44:17.203Z,101864.85
2018-05-28T16:46:44.936Z,101865.95
2018-05-28T16:49:12.601Z,101862.39
2018-05-28T16:51:40.231Z,101864.66
2018-05-28T16:54:07.926Z,101863.05
2018-05-28T16:56:35.575Z,101857.93
2018-05-28T16:59:03.230Z,101862.45
2018-05-28T17:01:30.911Z,101859.16
2018-05-28T17:03:58.543Z,101862.12
2018-05-28T17:06:26.150Z,101858.08
2018-05-28T17:08:53.784Z,101849.34
2018-05-28T17:11:21.395Z,101855.66
2018-05-28T17:13:49.023Z,101854.92
2018-05-28T17:16:16.630Z,101854.47
2018-05-28T17:18:44.343Z,101862.05
2018-05-28T17:21:11.946Z,101861.39
2018-05-28T17:23:39.667Z,101862.58
2018-05-28T17:26:07.271Z,101862.52
2018-05-28T17:28:34.989Z,101865.61
2018-05-28T17:31:02.598Z,101866.84
2018-05-28T17:33:30.230Z,101867.70
2018-05-28T17:35:57.842Z,101864.94
2018-05-28T17:38:25.474Z,101860.13
2018-05-28T17:40:53.197Z,101870.43
2018-05-28T17:43:20.835Z,101871.13
2018-05-28T17:45:48.451Z,101869.51
2018-05-28T17:48:16.079Z,101871.80
2018-05-28T17:50:43.685Z,101875.23
2018-05-28T17:53:11.316Z,101882.41
2018-05-28T17:55:38.922Z,101880.80
2018-05-28T17:58:06.631Z,101880.32
2018-05-28T18:00:36.054Z,101879.78
2018-05-28T18:03:03.694Z,101881.77
2018-05-28T18:05:31.356Z,101876.73
2018-05-28T18:07:58.985Z,101879.09
2018-05-28T18:10:26.679Z,101887.14
2018-05-28T18:12:54.347Z,101881.63
2018-05-28T18:15:21.954Z,101875.52
2018-05-28T18:17:49.574Z,101870.75
2018-05-28T18:20:17.214Z,101867.08
2018-05-28T18:22:44.890Z,101866.11
2018-05-28T18:25:12.554Z,101869.08
2018-05-28T18:27:40.160Z,101867.59
2018-05-28T18:30:07.807Z,101872.61
2018-05-28T18:32:35.415Z,101870.53
2018-05-28T18:35:03.097Z,101876.33
2018-05-28T18:37:30.714Z,101864.86
2018-05-28T18:39:58.346Z,101874.30
2018-05-28T18:42:25.991Z,101869.88
2018-05-28T18:44:53.654Z,101872.59
2018-05-28T18:47:21.262Z,101873.02
2018-05-28T18:49:48.900Z,101881.43
2018-05-28T18:52:16.514Z,101884.12
2018-05-28T18:54:44.146Z,101888.05
2018-05-28T18:57:11.755Z,101892.88
2018-05-28T18:59:39.382Z,101898.09
2018-05-28T19:02:07.029Z,101895.81
2018-05-28T19:04:34.666Z,101895.73
2018-05-28T19:07:02.282Z,101893.02
2018-05-28T19:09:29.918Z,101895.55
2018-05-28T19:11:57.526Z,101903.00
2018-05-28T19:14:25.166Z,101907.75
2018-05-28T19:16:52.775Z,101905.88
2018-05-28T19:19:20.407Z,101906.59
2018-05-28T19:21:48.019Z,101906.83
2018-05-28T19:24:15.651Z,101906.17
2018-05-28T19:26:43.254Z,101909.91
2018-05-28T19:29:10.896Z,101916.72
2018-05-28T19:31:38.550Z,101925.29
2018-05-28T19:34:06.179Z,101925.89
2018-05-28T19:36:33.833Z,101928.70
2018-05-28T19:39:01.447Z,101928.04
2018-05-28T19:41:29.086Z,101929.13
2018-05-28T19:43:56.728Z,101927.09
2018-05-28T19:46:24.358Z,101930.37
2018-05-28T19:48:51.974Z,101927.00
2018-05-28T19:51:19.662Z,101921.02
2018-05-28T19:53:47.375Z,101922.92
2018-05-28T19:56:15.002Z,101920.82
2018-05-28T19:58:42.640Z,101925.79
2018-05-28T20:01:10.294Z,101930.36
2018-05-28T20:03:37.918Z,101926.09
2018-05-28T20:06:05.926Z,101925.40
2018-05-28T20:08:33.535Z,101929.98
2018-05-28T20:11:01.217Z,101931.43
2018-05-28T20:13:28.878Z,101928.45
2018-05-28T20:15:56.510Z,101922.80
2018-05-28T20:18:24.123Z,101922.94
2018-05-28T20:20:51.734Z,101923.92
2018-05-28T20:23:19.426Z,101920.05
2018-05-28T20:25:47.122Z,101923.70
2018-05-28T20:28:14.741Z,101922.54
2018-05-28T20:30:42.427Z,101918.72
2018-05-28T20:33:10.073Z,101923.67
2018-05-28T20:35:37.734Z,101926.45
2018-05-28T20:38:05.399Z,101924.39
2018-05-28T20:40:33.016Z,101925.89
2018-05-28T20:43:00.651Z,101925.64
2018-05-28T20:45:28.294Z,101925.36
2018-05-28T20:47:56.047Z,101926.41
2018-05-28T20:50:23.658Z,101925.68
2018-05-28T20:52:51.301Z,101926.67
2018-05-28T20:55:18.916Z,101925.44
2018-05-28T20:57:46.598Z,101926.91
2018-05-28T21:00:14.213Z,101927.00
2018-05-28T21:02:41.846Z,101927.58
2018-05-28T21:05:09.471Z,101926.83
2018-05-28T21:07:37.106Z,101921.66
2018-05-28T21:10:04.726Z,101929.28
2018-05-28T21:12:32.462Z,101935.14
2018-05-28T21:15:00.073Z,101929.56
2018-05-28T21:17:27.714Z,101932.78
2018-05-28T21:19:55.371Z,101932.89
2018-05-28T21:22:23.011Z,101930.38
2018-05-28T21:24:50.666Z,101928.73
2018-05-28T21:27:18.306Z,101929.70
2018-05-28T21:29:45.920Z,101929.34
2018-05-28T21:32:13.574Z,101928.56
2018-05-28T21:34:41.190Z,101932.59
2018-05-28T21:37:08.879Z,101937.07
2018-05-28T21:39:36.540Z,101934.89
2018-05-28T21:42:04.207Z,101939.81
2018-05-28T21:44:31.867Z,101942.94
2018-05-28T21:46:59.486Z,101942.11
2018-05-28T21:49:27.190Z,101942.14
2018-05-28T21:51:54.849Z,101943.06
2018-05-28T21:54:22.482Z,101947.98
2018-05-28T21:56:50.098Z,101953.33
2018-05-28T21:59:17.846Z,101954.69
2018-05-28T22:01:45.471Z,101956.91
2018-05-28T22:04:13.118Z,101955.19
2018-05-28T22:06:40.737Z,101954.81
2018-05-28T22:09:08.375Z,101951.78
2018-05-28T22:11:35.986Z,101946.08
2018-05-28T22:14:03.632Z,101949.70
2018-05-28T22:16:31.250Z,101953.77
2018-05-28T22:18:58.887Z,101951.14
2018-05-28T22:21:26.501Z,101947.69
2018-05-28T22:23:54.140Z,101950.44
2018-05-28T22:26:21.763Z,101948.77
2018-05-28T22:28:49.405Z,101951.48
2018-05-28T22:31:17.042Z,101956.80
2018-05-28T22:33:44.683Z,101956.44
2018-05-28T22:36:12.297Z,101952.55
2018-05-28T22:38:39.926Z,101954.79
2018-05-28T22:41:07.591Z,101953.06
2018-05-28T22:43:35.250Z,101956.20
2018-05-28T22:46:02.917Z,101953.16
2018-05-28T22:48:30.538Z,101955.41
2018-05-28T22:50:58.181Z,101953.27
2018-05-28T22:53:25.798Z,101954.14
2018-05-28T22:55:53.440Z,101954.63
2018-05-28T22:58:21.055Z,101953.31
2018-05-28T23:00:48.691Z,101951.59
2018-05-28T23:03:16.306Z,101948.56
2018-05-28T23:05:43.943Z,101941.16
2018-05-28T23:08:11.567Z,101942.07
2018-05-28T23:10:39.227Z,101941.22
2018-05-28T23:13:06.886Z,101941.27
2018-05-28T23:15:34.555Z,101934.27
2018-05-28T23:18:02.170Z,101936.95
2018-05-28T23:20:29.874Z,101935.72
2018-05-28T23:22:57.538Z,101939.27
2018-05-28T23:25:25.202Z,101939.77
2018-05-28T23:27:52.811Z,101940.27
2018-05-28T23:30:20.449Z,101938.55
2018-05-28T23:32:48.078Z,101935.09
2018-05-28T23:35:15.715Z,101931.59
2018-05-28T23:37:43.330Z,101936.02
2018-05-28T23:40:11.070Z,101934.29
2018-05-28T23:42:38.686Z,101935.22
2018-05-28T23:45:06.394Z,101933.92
2018-05-28T23:47:34.566Z,101930.86
2018-05-28T23:50:02.207Z,101922.95
2018-05-28T23:52:29.834Z,101923.41
2018-05-28T23:54:57.475Z,101926.45
2018-05-28T23:57:25.118Z,101926.47
2018-05-28T23:59:52.778Z,101920.77
